Berwick, IA (50032)

3:13 AM CDT on July 31, 2016 (GMT -0500)
APRSWXNET | | Change Station

Elev 918 ft 41.63 °N, 93.53 °W | Updated 16 minutes ago

Partly Cloudy
Partly Cloudy
67 °F
Feels Like 67 °F
N
3
Wind Variable Wind from SE
Gusts 5.0 mph

Today
High -- | Low -- °F
--% Chance of Precip.
Yesterday
High -- | Low -- °F
Precip. -- in
Pressure 29.96 in
Visibility 10.0 miles
Clouds Few 25000 ft
Dew Point 65 °F
Humidity 93%
Rainfall in
Snow Depth Not available.
6:08 AM 8:32 PM
Waning Crescent, 8% visible
METAR KDSM 310754Z 16005KT 10SM FEW250 21/18 A2999 RMK AO2 SLP146 T02060183
Pressure 29.96 in
Visibility 10.0 miles
Clouds Few 25000 ft
Dew Point 65 °F
Humidity 93%
Rainfall in
Snow Depth Not available.
6:08 AM 8:32 PM
Waning Crescent, 8% visible
METAR KDSM 310754Z 16005KT 10SM FEW250 21/18 A2999 RMK AO2 SLP146 T02060183

10-Day Weather Forecast

Almanac

Astronomy

Jul. 31, 2016 Rise Set
Actual Time
Civil Twilight
Nautical Twilight
Astronomical Twilight
Moon
Length of Visible Light
Length of Day
Tomorrow will be .
, % of the Moon is Illuminated

Today's Extremes

State Highs State Lows

Community

WunderPhotos

Upload Photos

1,928,768 photos uploaded!

WunderBlog® & News

Nearby

Air Quality

  Air Quality AQ Index Pollutant
Not available.

Snow Depth

Station Depth Elevation

Earthquake Activity

City Distance Mag. Time & Date
Minimum magnitude displayed is 2.5.

Coastal Water Temperatures

Place Temperature

Stations

Nearby Weather Stations

Station Location Temp. Windchill Dew Point Humidity Wind Precip. Elev Updated Type
                   

Watches & Warnings

There are currently no watches in effect.